sensor_id;sensor_type;location;lat;lon;timestamp;P1;durP1;ratioP1;P2;durP2;ratioP2
60588;SDS011;46421;48.610;9.334;2022-07-18T00:02:15;0.20;;;0.20;;
60588;SDS011;46421;48.610;9.334;2022-07-18T00:04:41;0.10;;;0.10;;
60588;SDS011;46421;48.610;9.334;2022-07-18T00:07:06;0.20;;;0.20;;
60588;SDS011;46421;48.610;9.334;2022-07-18T00:09:32;0.20;;;0.20;;
60588;SDS011;46421;48.610;9.334;2022-07-18T00:11:57;0.20;;;0.20;;
60588;SDS011;46421;48.610;9.334;2022-07-18T00:14:22;0.10;;;0.10;;
60588;SDS011;46421;48.610;9.334;2022-07-18T00:16:49;0.20;;;0.20;;
60588;SDS011;46421;48.610;9.334;2022-07-18T00:19:15;0.20;;;0.20;;
60588;SDS011;46421;48.610;9.334;2022-07-18T00:21:41;0.20;;;0.20;;
60588;SDS011;46421;48.610;9.334;2022-07-18T00:24:07;0.20;;;0.20;;
60588;SDS011;46421;48.610;9.334;2022-07-18T00:26:32;0.10;;;0.10;;
60588;SDS011;46421;48.610;9.334;2022-07-18T00:28:57;0.20;;;0.20;;
60588;SDS011;46421;48.610;9.334;2022-07-18T00:31:23;0.20;;;0.20;;
60588;SDS011;46421;48.610;9.334;2022-07-18T00:33:48;0.10;;;0.10;;
60588;SDS011;46421;48.610;9.334;2022-07-18T00:36:13;0.23;;;0.23;;
60588;SDS011;46421;48.610;9.334;2022-07-18T00:38:38;0.10;;;0.10;;
60588;SDS011;46421;48.610;9.334;2022-07-18T00:41:04;0.10;;;0.10;;
60588;SDS011;46421;48.610;9.334;2022-07-18T00:43:29;0.10;;;0.10;;
60588;SDS011;46421;48.610;9.334;2022-07-18T00:45:55;0.20;;;0.20;;
60588;SDS011;46421;48.610;9.334;2022-07-18T00:48:21;0.20;;;0.20;;
60588;SDS011;46421;48.610;9.334;2022-07-18T00:50:46;0.17;;;0.17;;
60588;SDS011;46421;48.610;9.334;2022-07-18T00:53:11;0.20;;;0.20;;
60588;SDS011;46421;48.610;9.334;2022-07-18T00:55:38;0.15;;;0.15;;
60588;SDS011;46421;48.610;9.334;2022-07-18T00:58:04;0.10;;;0.10;;
60588;SDS011;46421;48.610;9.334;2022-07-18T01:00:30;0.22;;;0.22;;
60588;SDS011;46421;48.610;9.334;2022-07-18T01:02:55;0.20;;;0.20;;
60588;SDS011;46421;48.610;9.334;2022-07-18T01:05:21;0.20;;;0.20;;
60588;SDS011;46421;48.610;9.334;2022-07-18T01:07:47;0.10;;;0.10;;
60588;SDS011;46421;48.610;9.334;2022-07-18T01:10:12;0.20;;;0.20;;
60588;SDS011;46421;48.610;9.334;2022-07-18T01:12:37;0.20;;;0.20;;
60588;SDS011;46421;48.610;9.334;2022-07-18T01:15:04;0.20;;;0.20;;
60588;SDS011;46421;48.610;9.334;2022-07-18T01:17:30;0.10;;;0.10;;
60588;SDS011;46421;48.610;9.334;2022-07-18T01:19:55;0.15;;;0.15;;
60588;SDS011;46421;48.610;9.334;2022-07-18T01:22:21;0.20;;;0.20;;
60588;SDS011;46421;48.610;9.334;2022-07-18T01:24:46;0.20;;;0.20;;
60588;SDS011;46421;48.610;9.334;2022-07-18T01:27:15;0.30;;;0.30;;
60588;SDS011;46421;48.610;9.334;2022-07-18T01:29:43;0.30;;;0.30;;
60588;SDS011;46421;48.610;9.334;2022-07-18T01:32:09;0.20;;;0.20;;
60588;SDS011;46421;48.610;9.334;2022-07-18T01:34:35;0.10;;;0.10;;
60588;SDS011;46421;48.610;9.334;2022-07-18T01:37:01;0.20;;;0.20;;
60588;SDS011;46421;48.610;9.334;2022-07-18T01:39:28;0.20;;;0.20;;
60588;SDS011;46421;48.610;9.334;2022-07-18T01:41:56;0.17;;;0.17;;
60588;SDS011;46421;48.610;9.334;2022-07-18T01:44:27;0.20;;;0.20;;
60588;SDS011;46421;48.610;9.334;2022-07-18T01:46:53;0.20;;;0.20;;
60588;SDS011;46421;48.610;9.334;2022-07-18T01:49:18;0.20;;;0.20;;
60588;SDS011;46421;48.610;9.334;2022-07-18T01:51:45;0.20;;;0.20;;
60588;SDS011;46421;48.610;9.334;2022-07-18T01:54:11;0.10;;;0.10;;
60588;SDS011;46421;48.610;9.334;2022-07-18T01:56:36;0.20;;;0.20;;
60588;SDS011;46421;48.610;9.334;2022-07-18T01:59:05;0.20;;;0.20;;
60588;SDS011;46421;48.610;9.334;2022-07-18T02:01:30;0.20;;;0.20;;
60588;SDS011;46421;48.610;9.334;2022-07-18T02:03:56;0.20;;;0.20;;
60588;SDS011;46421;48.610;9.334;2022-07-18T02:06:21;0.20;;;0.20;;
60588;SDS011;46421;48.610;9.334;2022-07-18T02:08:46;0.20;;;0.20;;
60588;SDS011;46421;48.610;9.334;2022-07-18T02:11:12;0.10;;;0.10;;
60588;SDS011;46421;48.610;9.334;2022-07-18T02:13:37;0.17;;;0.17;;
60588;SDS011;46421;48.610;9.334;2022-07-18T02:16:05;0.10;;;0.10;;
60588;SDS011;46421;48.610;9.334;2022-07-18T02:18:30;0.17;;;0.17;;
60588;SDS011;46421;48.610;9.334;2022-07-18T02:20:56;0.17;;;0.17;;
60588;SDS011;46421;48.610;9.334;2022-07-18T02:23:21;0.20;;;0.20;;
60588;SDS011;46421;48.610;9.334;2022-07-18T02:25:47;0.10;;;0.10;;
60588;SDS011;46421;48.610;9.334;2022-07-18T02:28:12;0.10;;;0.10;;
60588;SDS011;46421;48.610;9.334;2022-07-18T02:30:37;0.20;;;0.20;;
60588;SDS011;46421;48.610;9.334;2022-07-18T02:33:02;0.10;;;0.10;;
60588;SDS011;46421;48.610;9.334;2022-07-18T02:35:28;0.20;;;0.20;;
60588;SDS011;46421;48.610;9.334;2022-07-18T02:37:53;0.10;;;0.10;;
60588;SDS011;46421;48.610;9.334;2022-07-18T02:40:19;0.20;;;0.20;;
60588;SDS011;46421;48.610;9.334;2022-07-18T02:42:44;0.20;;;0.20;;
60588;SDS011;46421;48.610;9.334;2022-07-18T02:45:09;0.20;;;0.20;;
60588;SDS011;46421;48.610;9.334;2022-07-18T02:47:35;0.10;;;0.10;;
60588;SDS011;46421;48.610;9.334;2022-07-18T02:50:01;0.20;;;0.20;;
60588;SDS011;46421;48.610;9.334;2022-07-18T02:52:26;0.10;;;0.10;;
60588;SDS011;46421;48.610;9.334;2022-07-18T02:54:51;0.20;;;0.20;;
60588;SDS011;46421;48.610;9.334;2022-07-18T02:57:16;0.20;;;0.20;;
60588;SDS011;46421;48.610;9.334;2022-07-18T02:59:42;0.20;;;0.20;;
60588;SDS011;46421;48.610;9.334;2022-07-18T03:02:07;0.17;;;0.17;;
60588;SDS011;46421;48.610;9.334;2022-07-18T03:04:33;0.20;;;0.20;;
60588;SDS011;46421;48.610;9.334;2022-07-18T03:06:58;0.10;;;0.10;;
60588;SDS011;46421;48.610;9.334;2022-07-18T03:09:24;0.13;;;0.13;;
60588;SDS011;46421;48.610;9.334;2022-07-18T03:11:49;0.20;;;0.20;;
60588;SDS011;46421;48.610;9.334;2022-07-18T03:14:14;0.10;;;0.10;;
60588;SDS011;46421;48.610;9.334;2022-07-18T03:16:40;0.30;;;0.30;;
60588;SDS011;46421;48.610;9.334;2022-07-18T03:19:05;0.20;;;0.20;;
60588;SDS011;46421;48.610;9.334;2022-07-18T03:21:31;0.20;;;0.20;;
60588;SDS011;46421;48.610;9.334;2022-07-18T03:23:56;0.13;;;0.13;;
60588;SDS011;46421;48.610;9.334;2022-07-18T03:26:21;0.10;;;0.10;;
60588;SDS011;46421;48.610;9.334;2022-07-18T03:28:47;0.20;;;0.20;;
60588;SDS011;46421;48.610;9.334;2022-07-18T03:31:12;0.13;;;0.13;;
60588;SDS011;46421;48.610;9.334;2022-07-18T03:33:38;0.20;;;0.20;;
60588;SDS011;46421;48.610;9.334;2022-07-18T03:36:03;0.20;;;0.20;;
60588;SDS011;46421;48.610;9.334;2022-07-18T03:38:29;0.20;;;0.20;;
60588;SDS011;46421;48.610;9.334;2022-07-18T03:40:54;0.20;;;0.20;;
60588;SDS011;46421;48.610;9.334;2022-07-18T03:43:20;0.27;;;0.27;;
60588;SDS011;46421;48.610;9.334;2022-07-18T03:45:46;0.20;;;0.20;;
60588;SDS011;46421;48.610;9.334;2022-07-18T03:48:11;0.20;;;0.20;;
60588;SDS011;46421;48.610;9.334;2022-07-18T03:50:37;0.13;;;0.13;;
60588;SDS011;46421;48.610;9.334;2022-07-18T03:53:02;0.20;;;0.20;;
60588;SDS011;46421;48.610;9.334;2022-07-18T03:55:27;0.20;;;0.20;;
60588;SDS011;46421;48.610;9.334;2022-07-18T03:57:53;0.20;;;0.20;;
60588;SDS011;46421;48.610;9.334;2022-07-18T04:00:18;0.30;;;0.30;;
60588;SDS011;46421;48.610;9.334;2022-07-18T04:02:45;0.30;;;0.30;;
60588;SDS011;46421;48.610;9.334;2022-07-18T04:05:12;0.10;;;0.10;;
60588;SDS011;46421;48.610;9.334;2022-07-18T04:07:37;0.10;;;0.10;;
60588;SDS011;46421;48.610;9.334;2022-07-18T04:10:03;0.10;;;0.10;;
60588;SDS011;46421;48.610;9.334;2022-07-18T04:12:30;0.20;;;0.20;;
60588;SDS011;46421;48.610;9.334;2022-07-18T04:14:55;0.17;;;0.17;;
60588;SDS011;46421;48.610;9.334;2022-07-18T04:17:20;0.17;;;0.17;;
60588;SDS011;46421;48.610;9.334;2022-07-18T04:19:46;0.10;;;0.10;;
60588;SDS011;46421;48.610;9.334;2022-07-18T04:22:11;0.20;;;0.20;;
60588;SDS011;46421;48.610;9.334;2022-07-18T04:24:36;0.15;;;0.15;;
60588;SDS011;46421;48.610;9.334;2022-07-18T04:27:02;0.28;;;0.28;;
60588;SDS011;46421;48.610;9.334;2022-07-18T04:29:27;0.20;;;0.20;;
60588;SDS011;46421;48.610;9.334;2022-07-18T04:31:52;0.20;;;0.20;;
60588;SDS011;46421;48.610;9.334;2022-07-18T04:34:18;0.20;;;0.20;;
60588;SDS011;46421;48.610;9.334;2022-07-18T04:36:43;0.20;;;0.20;;
60588;SDS011;46421;48.610;9.334;2022-07-18T04:39:08;0.20;;;0.20;;
60588;SDS011;46421;48.610;9.334;2022-07-18T04:41:34;0.20;;;0.20;;
60588;SDS011;46421;48.610;9.334;2022-07-18T04:43:59;0.20;;;0.20;;
60588;SDS011;46421;48.610;9.334;2022-07-18T04:46:24;0.10;;;0.10;;
60588;SDS011;46421;48.610;9.334;2022-07-18T04:48:50;0.20;;;0.20;;
60588;SDS011;46421;48.610;9.334;2022-07-18T04:51:15;0.13;;;0.13;;
60588;SDS011;46421;48.610;9.334;2022-07-18T04:53:40;0.20;;;0.20;;
60588;SDS011;46421;48.610;9.334;2022-07-18T04:56:06;0.20;;;0.20;;
60588;SDS011;46421;48.610;9.334;2022-07-18T04:58:31;0.20;;;0.20;;
60588;SDS011;46421;48.610;9.334;2022-07-18T05:00:56;0.30;;;0.30;;
60588;SDS011;46421;48.610;9.334;2022-07-18T05:03:22;0.20;;;0.20;;
60588;SDS011;46421;48.610;9.334;2022-07-18T05:05:47;0.10;;;0.10;;
60588;SDS011;46421;48.610;9.334;2022-07-18T05:08:12;0.30;;;0.30;;
60588;SDS011;46421;48.610;9.334;2022-07-18T05:10:38;0.20;;;0.20;;
60588;SDS011;46421;48.610;9.334;2022-07-18T05:13:03;0.20;;;0.20;;
60588;SDS011;46421;48.610;9.334;2022-07-18T05:15:28;0.10;;;0.10;;
60588;SDS011;46421;48.610;9.334;2022-07-18T05:17:53;0.20;;;0.20;;
60588;SDS011;46421;48.610;9.334;2022-07-18T05:20:20;0.10;;;0.10;;
60588;SDS011;46421;48.610;9.334;2022-07-18T05:22:47;0.20;;;0.20;;
60588;SDS011;46421;48.610;9.334;2022-07-18T05:25:12;0.10;;;0.10;;
60588;SDS011;46421;48.610;9.334;2022-07-18T05:27:39;0.30;;;0.30;;
60588;SDS011;46421;48.610;9.334;2022-07-18T05:30:06;0.20;;;0.20;;
60588;SDS011;46421;48.610;9.334;2022-07-18T05:32:32;0.28;;;0.28;;
60588;SDS011;46421;48.610;9.334;2022-07-18T05:34:58;0.20;;;0.20;;
60588;SDS011;46421;48.610;9.334;2022-07-18T05:37:23;0.30;;;0.30;;
60588;SDS011;46421;48.610;9.334;2022-07-18T05:39:49;0.20;;;0.20;;
60588;SDS011;46421;48.610;9.334;2022-07-18T05:42:15;0.25;;;0.25;;
60588;SDS011;46421;48.610;9.334;2022-07-18T05:44:40;0.20;;;0.20;;
60588;SDS011;46421;48.610;9.334;2022-07-18T05:47:05;0.20;;;0.20;;
60588;SDS011;46421;48.610;9.334;2022-07-18T05:49:31;0.20;;;0.20;;
60588;SDS011;46421;48.610;9.334;2022-07-18T05:51:56;0.20;;;0.20;;
60588;SDS011;46421;48.610;9.334;2022-07-18T05:54:21;0.20;;;0.20;;
60588;SDS011;46421;48.610;9.334;2022-07-18T05:56:50;0.10;;;0.10;;
60588;SDS011;46421;48.610;9.334;2022-07-18T05:59:16;0.20;;;0.20;;
60588;SDS011;46421;48.610;9.334;2022-07-18T06:01:43;0.20;;;0.20;;
60588;SDS011;46421;48.610;9.334;2022-07-18T06:04:09;0.20;;;0.20;;
60588;SDS011;46421;48.610;9.334;2022-07-18T06:06:34;0.20;;;0.20;;
60588;SDS011;46421;48.610;9.334;2022-07-18T06:09:00;0.10;;;0.10;;
60588;SDS011;46421;48.610;9.334;2022-07-18T06:11:25;0.10;;;0.10;;
60588;SDS011;46421;48.610;9.334;2022-07-18T06:13:50;0.10;;;0.10;;
60588;SDS011;46421;48.610;9.334;2022-07-18T06:16:16;0.25;;;0.25;;
60588;SDS011;46421;48.610;9.334;2022-07-18T06:18:41;0.20;;;0.20;;
60588;SDS011;46421;48.610;9.334;2022-07-18T06:21:07;0.20;;;0.20;;
60588;SDS011;46421;48.610;9.334;2022-07-18T06:23:32;0.20;;;0.20;;
60588;SDS011;46421;48.610;9.334;2022-07-18T06:25:57;0.20;;;0.20;;
60588;SDS011;46421;48.610;9.334;2022-07-18T06:28:23;0.20;;;0.20;;
60588;SDS011;46421;48.610;9.334;2022-07-18T06:30:48;0.20;;;0.20;;
60588;SDS011;46421;48.610;9.334;2022-07-18T06:33:14;0.10;;;0.10;;
60588;SDS011;46421;48.610;9.334;2022-07-18T06:35:39;0.20;;;0.20;;
60588;SDS011;46421;48.610;9.334;2022-07-18T06:38:05;0.20;;;0.20;;
60588;SDS011;46421;48.610;9.334;2022-07-18T06:40:31;0.20;;;0.20;;
60588;SDS011;46421;48.610;9.334;2022-07-18T06:42:57;0.20;;;0.20;;
60588;SDS011;46421;48.610;9.334;2022-07-18T06:45:22;0.20;;;0.20;;
60588;SDS011;46421;48.610;9.334;2022-07-18T06:47:47;0.35;;;0.35;;
60588;SDS011;46421;48.610;9.334;2022-07-18T06:50:13;0.40;;;0.40;;
60588;SDS011;46421;48.610;9.334;2022-07-18T06:52:40;0.40;;;0.40;;
60588;SDS011;46421;48.610;9.334;2022-07-18T06:55:06;0.30;;;0.30;;
60588;SDS011;46421;48.610;9.334;2022-07-18T06:57:33;0.20;;;0.20;;
60588;SDS011;46421;48.610;9.334;2022-07-18T06:59:58;0.20;;;0.20;;
60588;SDS011;46421;48.610;9.334;2022-07-18T07:02:24;0.30;;;0.30;;
60588;SDS011;46421;48.610;9.334;2022-07-18T07:04:49;0.30;;;0.30;;
60588;SDS011;46421;48.610;9.334;2022-07-18T07:07:15;0.22;;;0.22;;
60588;SDS011;46421;48.610;9.334;2022-07-18T07:09:40;0.00;;;0.00;;
60588;SDS011;46421;48.610;9.334;2022-07-18T07:12:06;0.10;;;0.10;;
60588;SDS011;46421;48.610;9.334;2022-07-18T07:14:31;0.30;;;0.30;;
60588;SDS011;46421;48.610;9.334;2022-07-18T07:16:56;0.30;;;0.30;;
60588;SDS011;46421;48.610;9.334;2022-07-18T07:19:22;0.20;;;0.20;;
60588;SDS011;46421;48.610;9.334;2022-07-18T07:21:47;0.20;;;0.20;;
60588;SDS011;46421;48.610;9.334;2022-07-18T07:24:12;0.20;;;0.20;;
60588;SDS011;46421;48.610;9.334;2022-07-18T07:26:38;0.20;;;0.20;;
60588;SDS011;46421;48.610;9.334;2022-07-18T07:29:03;0.20;;;0.20;;
60588;SDS011;46421;48.610;9.334;2022-07-18T07:31:28;0.20;;;0.20;;
60588;SDS011;46421;48.610;9.334;2022-07-18T07:33:54;0.20;;;0.20;;
60588;SDS011;46421;48.610;9.334;2022-07-18T07:36:19;0.20;;;0.20;;
60588;SDS011;46421;48.610;9.334;2022-07-18T07:38:44;0.13;;;0.13;;
60588;SDS011;46421;48.610;9.334;2022-07-18T07:41:09;0.20;;;0.20;;
60588;SDS011;46421;48.610;9.334;2022-07-18T07:43:35;0.20;;;0.20;;
60588;SDS011;46421;48.610;9.334;2022-07-18T07:46:00;0.20;;;0.20;;
60588;SDS011;46421;48.610;9.334;2022-07-18T07:48:26;0.20;;;0.20;;
60588;SDS011;46421;48.610;9.334;2022-07-18T07:50:51;0.25;;;0.25;;
60588;SDS011;46421;48.610;9.334;2022-07-18T07:53:16;0.20;;;0.20;;
60588;SDS011;46421;48.610;9.334;2022-07-18T07:55:42;0.20;;;0.20;;
60588;SDS011;46421;48.610;9.334;2022-07-18T07:58:07;0.20;;;0.20;;
60588;SDS011;46421;48.610;9.334;2022-07-18T08:00:33;0.20;;;0.20;;
60588;SDS011;46421;48.610;9.334;2022-07-18T08:03:00;0.20;;;0.20;;
60588;SDS011;46421;48.610;9.334;2022-07-18T08:05:27;0.20;;;0.20;;
60588;SDS011;46421;48.610;9.334;2022-07-18T08:07:53;0.22;;;0.22;;
60588;SDS011;46421;48.610;9.334;2022-07-18T08:10:19;0.20;;;0.20;;
60588;SDS011;46421;48.610;9.334;2022-07-18T08:12:44;0.20;;;0.20;;
60588;SDS011;46421;48.610;9.334;2022-07-18T08:15:10;0.20;;;0.20;;
60588;SDS011;46421;48.610;9.334;2022-07-18T08:17:35;0.20;;;0.20;;
60588;SDS011;46421;48.610;9.334;2022-07-18T08:20:00;0.25;;;0.25;;
60588;SDS011;46421;48.610;9.334;2022-07-18T08:22:26;0.30;;;0.30;;
60588;SDS011;46421;48.610;9.334;2022-07-18T08:24:51;0.25;;;0.25;;
60588;SDS011;46421;48.610;9.334;2022-07-18T08:27:17;0.28;;;0.28;;
60588;SDS011;46421;48.610;9.334;2022-07-18T08:29:42;0.20;;;0.20;;
60588;SDS011;46421;48.610;9.334;2022-07-18T08:32:07;0.20;;;0.20;;
60588;SDS011;46421;48.610;9.334;2022-07-18T08:34:33;0.20;;;0.20;;
60588;SDS011;46421;48.610;9.334;2022-07-18T08:36:58;0.20;;;0.20;;
60588;SDS011;46421;48.610;9.334;2022-07-18T08:39:23;0.20;;;0.20;;
60588;SDS011;46421;48.610;9.334;2022-07-18T08:41:49;0.20;;;0.20;;
60588;SDS011;46421;48.610;9.334;2022-07-18T08:44:15;0.20;;;0.20;;
60588;SDS011;46421;48.610;9.334;2022-07-18T08:46:41;0.20;;;0.20;;
60588;SDS011;46421;48.610;9.334;2022-07-18T08:49:13;0.30;;;0.30;;
60588;SDS011;46421;48.610;9.334;2022-07-18T08:51:40;0.20;;;0.20;;
60588;SDS011;46421;48.610;9.334;2022-07-18T08:54:07;0.20;;;0.20;;
60588;SDS011;46421;48.610;9.334;2022-07-18T08:56:32;0.20;;;0.20;;
60588;SDS011;46421;48.610;9.334;2022-07-18T08:58:59;0.28;;;0.28;;
60588;SDS011;46421;48.610;9.334;2022-07-18T09:01:25;0.30;;;0.30;;
60588;SDS011;46421;48.610;9.334;2022-07-18T09:03:51;0.20;;;0.20;;
60588;SDS011;46421;48.610;9.334;2022-07-18T09:06:17;0.30;;;0.30;;
60588;SDS011;46421;48.610;9.334;2022-07-18T09:08:58;0.20;;;0.20;;
60588;SDS011;46421;48.610;9.334;2022-07-18T09:11:25;0.30;;;0.30;;
60588;SDS011;46421;48.610;9.334;2022-07-18T09:13:50;0.40;;;0.40;;
60588;SDS011;46421;48.610;9.334;2022-07-18T09:16:15;0.30;;;0.30;;
60588;SDS011;46421;48.610;9.334;2022-07-18T09:18:41;0.20;;;0.20;;
60588;SDS011;46421;48.610;9.334;2022-07-18T09:21:09;0.20;;;0.20;;
60588;SDS011;46421;48.610;9.334;2022-07-18T09:23:38;0.20;;;0.20;;
60588;SDS011;46421;48.610;9.334;2022-07-18T09:26:06;0.28;;;0.28;;
60588;SDS011;46421;48.610;9.334;2022-07-18T09:28:45;0.30;;;0.30;;
60588;SDS011;46421;48.610;9.334;2022-07-18T09:31:22;0.23;;;0.23;;
60588;SDS011;46421;48.610;9.334;2022-07-18T09:33:52;0.20;;;0.20;;
60588;SDS011;46421;48.610;9.334;2022-07-18T09:36:18;0.20;;;0.20;;
60588;SDS011;46421;48.610;9.334;2022-07-18T09:38:43;0.30;;;0.30;;
60588;SDS011;46421;48.610;9.334;2022-07-18T09:41:10;0.20;;;0.20;;
60588;SDS011;46421;48.610;9.334;2022-07-18T09:43:36;0.28;;;0.28;;
60588;SDS011;46421;48.610;9.334;2022-07-18T09:46:03;0.20;;;0.20;;
60588;SDS011;46421;48.610;9.334;2022-07-18T09:48:30;0.30;;;0.30;;
60588;SDS011;46421;48.610;9.334;2022-07-18T09:50:56;0.28;;;0.28;;
60588;SDS011;46421;48.610;9.334;2022-07-18T09:53:40;0.38;;;0.30;;
60588;SDS011;46421;48.610;9.334;2022-07-18T09:56:09;0.20;;;0.20;;
60588;SDS011;46421;48.610;9.334;2022-07-18T09:58:50;0.32;;;0.32;;
60588;SDS011;46421;48.610;9.334;2022-07-18T10:01:17;0.20;;;0.20;;
60588;SDS011;46421;48.610;9.334;2022-07-18T10:03:43;0.30;;;0.30;;
60588;SDS011;46421;48.610;9.334;2022-07-18T10:06:08;0.28;;;0.28;;
60588;SDS011;46421;48.610;9.334;2022-07-18T10:08:34;0.20;;;0.20;;
60588;SDS011;46421;48.610;9.334;2022-07-18T10:11:01;0.20;;;0.20;;
60588;SDS011;46421;48.610;9.334;2022-07-18T10:13:29;0.25;;;0.25;;
60588;SDS011;46421;48.610;9.334;2022-07-18T10:15:57;0.20;;;0.20;;
60588;SDS011;46421;48.610;9.334;2022-07-18T10:18:24;0.20;;;0.20;;
60588;SDS011;46421;48.610;9.334;2022-07-18T10:20:52;0.28;;;0.28;;
60588;SDS011;46421;48.610;9.334;2022-07-18T10:26:06;0.20;;;0.20;;
60588;SDS011;46421;48.610;9.334;2022-07-18T10:28:54;0.20;;;0.20;;
60588;SDS011;46421;48.610;9.334;2022-07-18T10:34:08;0.22;;;0.22;;
60588;SDS011;46421;48.610;9.334;2022-07-18T10:39:16;0.30;;;0.30;;
60588;SDS011;46421;48.610;9.334;2022-07-18T10:57:28;0.10;;;0.10;;
60588;SDS011;46421;48.610;9.334;2022-07-18T11:00:03;0.30;;;0.30;;
60588;SDS011;46421;48.610;9.334;2022-07-18T11:02:38;0.20;;;0.20;;
60588;SDS011;46421;48.610;9.334;2022-07-18T11:15:56;0.30;;;0.30;;
60588;SDS011;46421;48.610;9.334;2022-07-18T11:18:30;0.20;;;0.20;;
60588;SDS011;46421;48.610;9.334;2022-07-18T11:20:56;0.10;;;0.10;;
60588;SDS011;46421;48.610;9.334;2022-07-18T11:23:23;0.30;;;0.30;;
60588;SDS011;46421;48.610;9.334;2022-07-18T11:25:51;0.10;;;0.10;;
60588;SDS011;46421;48.610;9.334;2022-07-18T11:28:18;0.20;;;0.20;;
60588;SDS011;46421;48.610;9.334;2022-07-18T11:30:44;0.15;;;0.15;;
60588;SDS011;46421;48.610;9.334;2022-07-18T11:33:19;0.17;;;0.17;;
60588;SDS011;46421;48.610;9.334;2022-07-18T11:35:49;0.28;;;0.28;;
60588;SDS011;46421;48.610;9.334;2022-07-18T11:38:15;0.10;;;0.10;;
60588;SDS011;46421;48.610;9.334;2022-07-18T11:40:47;0.10;;;0.10;;
60588;SDS011;46421;48.610;9.334;2022-07-18T11:43:20;0.20;;;0.20;;
60588;SDS011;46421;48.610;9.334;2022-07-18T11:48:46;0.10;;;0.10;;
60588;SDS011;46421;48.610;9.334;2022-07-18T11:51:16;0.13;;;0.13;;
60588;SDS011;46421;48.610;9.334;2022-07-18T11:53:44;0.10;;;0.10;;
60588;SDS011;46421;48.610;9.334;2022-07-18T11:56:11;0.10;;;0.10;;
60588;SDS011;46421;48.610;9.334;2022-07-18T11:58:38;0.10;;;0.10;;
60588;SDS011;46421;48.610;9.334;2022-07-18T12:01:04;0.10;;;0.10;;
60588;SDS011;46421;48.610;9.334;2022-07-18T12:03:30;0.30;;;0.30;;
60588;SDS011;46421;48.610;9.334;2022-07-18T12:05:58;0.20;;;0.20;;
60588;SDS011;46421;48.610;9.334;2022-07-18T12:13:58;0.20;;;0.20;;
60588;SDS011;46421;48.610;9.334;2022-07-18T12:16:26;0.10;;;0.10;;
60588;SDS011;46421;48.610;9.334;2022-07-18T12:18:58;0.10;;;0.10;;
60588;SDS011;46421;48.610;9.334;2022-07-18T12:27:19;0.10;;;0.10;;
60588;SDS011;46421;48.610;9.334;2022-07-18T12:37:40;0.20;;;0.20;;
60588;SDS011;46421;48.610;9.334;2022-07-18T12:40:15;0.10;;;0.10;;
60588;SDS011;46421;48.610;9.334;2022-07-18T12:42:40;0.10;;;0.10;;
60588;SDS011;46421;48.610;9.334;2022-07-18T12:45:09;0.10;;;0.10;;
60588;SDS011;46421;48.610;9.334;2022-07-18T12:47:35;0.00;;;0.00;;
60588;SDS011;46421;48.610;9.334;2022-07-18T12:50:02;0.10;;;0.10;;
60588;SDS011;46421;48.610;9.334;2022-07-18T12:52:31;0.10;;;0.10;;
60588;SDS011;46421;48.610;9.334;2022-07-18T12:54:57;0.10;;;0.10;;
60588;SDS011;46421;48.610;9.334;2022-07-18T12:57:23;0.10;;;0.10;;
60588;SDS011;46421;48.610;9.334;2022-07-18T12:59:48;0.10;;;0.10;;
60588;SDS011;46421;48.610;9.334;2022-07-18T13:02:14;0.00;;;0.00;;
60588;SDS011;46421;48.610;9.334;2022-07-18T13:04:48;0.10;;;0.10;;
60588;SDS011;46421;48.610;9.334;2022-07-18T13:07:13;0.00;;;0.00;;
60588;SDS011;46421;48.610;9.334;2022-07-18T13:09:39;0.10;;;0.10;;
60588;SDS011;46421;48.610;9.334;2022-07-18T13:12:04;0.10;;;0.10;;
60588;SDS011;46421;48.610;9.334;2022-07-18T13:14:30;0.10;;;0.10;;
60588;SDS011;46421;48.610;9.334;2022-07-18T13:16:55;0.10;;;0.10;;
60588;SDS011;46421;48.610;9.334;2022-07-18T13:19:21;0.08;;;0.08;;
60588;SDS011;46421;48.610;9.334;2022-07-18T13:21:47;0.00;;;0.00;;
60588;SDS011;46421;48.610;9.334;2022-07-18T13:24:13;0.10;;;0.10;;
60588;SDS011;46421;48.610;9.334;2022-07-18T13:26:40;0.10;;;0.10;;
60588;SDS011;46421;48.610;9.334;2022-07-18T13:29:06;0.10;;;0.10;;
60588;SDS011;46421;48.610;9.334;2022-07-18T13:31:32;0.10;;;0.10;;
60588;SDS011;46421;48.610;9.334;2022-07-18T13:33:57;0.10;;;0.10;;
60588;SDS011;46421;48.610;9.334;2022-07-18T13:36:23;0.10;;;0.10;;
60588;SDS011;46421;48.610;9.334;2022-07-18T13:38:48;0.10;;;0.10;;
60588;SDS011;46421;48.610;9.334;2022-07-18T13:41:14;0.10;;;0.10;;
60588;SDS011;46421;48.610;9.334;2022-07-18T13:43:39;0.10;;;0.10;;
60588;SDS011;46421;48.610;9.334;2022-07-18T13:46:05;0.00;;;0.00;;
60588;SDS011;46421;48.610;9.334;2022-07-18T13:48:32;0.10;;;0.10;;
60588;SDS011;46421;48.610;9.334;2022-07-18T13:50:57;0.00;;;0.00;;
60588;SDS011;46421;48.610;9.334;2022-07-18T13:53:22;0.10;;;0.10;;
60588;SDS011;46421;48.610;9.334;2022-07-18T13:55:48;0.10;;;0.10;;
60588;SDS011;46421;48.610;9.334;2022-07-18T13:58:13;0.10;;;0.10;;
60588;SDS011;46421;48.610;9.334;2022-07-18T14:00:39;0.00;;;0.00;;
60588;SDS011;46421;48.610;9.334;2022-07-18T14:03:04;0.20;;;0.20;;
60588;SDS011;46421;48.610;9.334;2022-07-18T14:05:29;0.00;;;0.00;;
60588;SDS011;46421;48.610;9.334;2022-07-18T14:07:54;0.00;;;0.00;;
60588;SDS011;46421;48.610;9.334;2022-07-18T14:10:20;0.10;;;0.10;;
60588;SDS011;46421;48.610;9.334;2022-07-18T14:12:45;0.00;;;0.00;;
60588;SDS011;46421;48.610;9.334;2022-07-18T14:15:11;0.00;;;0.00;;
60588;SDS011;46421;48.610;9.334;2022-07-18T14:17:36;0.00;;;0.00;;
60588;SDS011;46421;48.610;9.334;2022-07-18T14:20:02;0.00;;;0.00;;
60588;SDS011;46421;48.610;9.334;2022-07-18T14:22:28;0.05;;;0.05;;
60588;SDS011;46421;48.610;9.334;2022-07-18T14:24:53;0.10;;;0.10;;
60588;SDS011;46421;48.610;9.334;2022-07-18T14:27:19;0.10;;;0.10;;
60588;SDS011;46421;48.610;9.334;2022-07-18T14:29:44;0.00;;;0.00;;
60588;SDS011;46421;48.610;9.334;2022-07-18T14:32:09;0.10;;;0.10;;
60588;SDS011;46421;48.610;9.334;2022-07-18T14:34:34;0.00;;;0.00;;
60588;SDS011;46421;48.610;9.334;2022-07-18T14:37:00;0.10;;;0.10;;
60588;SDS011;46421;48.610;9.334;2022-07-18T14:39:25;0.03;;;0.03;;
60588;SDS011;46421;48.610;9.334;2022-07-18T14:41:51;0.00;;;0.00;;
60588;SDS011;46421;48.610;9.334;2022-07-18T14:44:16;0.00;;;0.00;;
60588;SDS011;46421;48.610;9.334;2022-07-18T14:46:41;0.00;;;0.00;;
60588;SDS011;46421;48.610;9.334;2022-07-18T14:49:07;0.00;;;0.00;;
60588;SDS011;46421;48.610;9.334;2022-07-18T14:51:32;0.00;;;0.00;;
60588;SDS011;46421;48.610;9.334;2022-07-18T14:53:58;0.10;;;0.10;;
60588;SDS011;46421;48.610;9.334;2022-07-18T14:56:24;0.00;;;0.00;;
60588;SDS011;46421;48.610;9.334;2022-07-18T14:58:49;0.00;;;0.00;;
60588;SDS011;46421;48.610;9.334;2022-07-18T15:01:14;0.10;;;0.10;;
60588;SDS011;46421;48.610;9.334;2022-07-18T15:03:39;0.00;;;0.00;;
60588;SDS011;46421;48.610;9.334;2022-07-18T15:06:05;0.00;;;0.00;;
60588;SDS011;46421;48.610;9.334;2022-07-18T15:08:30;0.00;;;0.00;;
60588;SDS011;46421;48.610;9.334;2022-07-18T15:10:59;0.00;;;0.00;;
60588;SDS011;46421;48.610;9.334;2022-07-18T15:13:24;0.00;;;0.00;;
60588;SDS011;46421;48.610;9.334;2022-07-18T15:15:51;0.05;;;0.05;;
60588;SDS011;46421;48.610;9.334;2022-07-18T15:18:16;0.00;;;0.00;;
60588;SDS011;46421;48.610;9.334;2022-07-18T15:20:41;0.00;;;0.00;;
60588;SDS011;46421;48.610;9.334;2022-07-18T15:23:06;0.00;;;0.00;;
60588;SDS011;46421;48.610;9.334;2022-07-18T15:25:32;0.10;;;0.10;;
60588;SDS011;46421;48.610;9.334;2022-07-18T15:27:57;0.00;;;0.00;;
60588;SDS011;46421;48.610;9.334;2022-07-18T15:30:22;0.00;;;0.00;;
60588;SDS011;46421;48.610;9.334;2022-07-18T15:32:48;0.00;;;0.00;;
60588;SDS011;46421;48.610;9.334;2022-07-18T15:35:13;0.00;;;0.00;;
60588;SDS011;46421;48.610;9.334;2022-07-18T15:37:38;0.00;;;0.00;;
60588;SDS011;46421;48.610;9.334;2022-07-18T15:40:04;0.00;;;0.00;;